Log in
NYSE:BSM

Black Stone Minerals Institutional Ownership

$6.26
-0.11 (-1.73 %)
(As of 09/18/2020 12:00 AM ET)
Add
Compare
Today's Range
$6.26
Now: $6.26
$6.49
50-Day Range
$6.05
MA: $6.90
$7.54
52-Week Range
$4.04
Now: $6.26
$14.99
Volume1.18 million shs
Average Volume483,702 shs
Market Capitalization$1.29 billion
P/E Ratio8.24
Dividend Yield9.42%
Beta1.5

Institutional Ownership

Institutional Ownership Changes (13F Filings) for Black Stone Minerals (NYSE:BSM)

Institutional Ownership Percentage: 22.47%

Institutional Buying and Selling by Quarter


Black Stone Minerals (NYSE BSM) Institutional Buying and Selling

Reporting DateHedge FundShares HeldMarket Value% of PortfolioQuarterly Change in SharesOwnership in Company
8/24/2020FMR LLC145,800$0.95M0.0%-1.2%0.071%
8/18/2020Tri Star Advisors Inc.73,377$0.47M0.3%N/A0.035%
8/14/2020Captrust Financial Advisors46,448$0.29M0.0%N/A0.023%
8/14/2020Bank of America Corp DE104,518$0.68M0.0%-8.8%0.051%
8/14/2020Stifel Financial Corp73,987$0.48M0.0%-23.9%0.036%
8/13/2020FMR LLC145,800$0.95M0.0%-1.2%0.071%
8/13/2020Marshall Wace LLP77,740$0.51M0.0%N/A0.038%
8/13/2020CIBC Private Wealth Group LLC464,404$3.02M0.0%+116.6%0.226%
8/13/2020Skandinaviska Enskilda Banken AB publ72,200$0.47M0.0%-39.6%0.035%
8/12/2020Bank of Montreal Can553,094$3.41M0.0%-75.3%0.269%
8/12/2020California Public Employees Retirement System350,415$2.28M0.0%+93.7%0.170%
8/11/2020Gruss & Co. LLC539,341$3.51M6.7%+23.5%0.262%
8/7/2020Virtu Financial LLC25,393$0.17M0.0%N/A0.012%
8/7/2020Wade G W & Inc.456,087$2.97M0.2%+131.0%0.221%
8/5/2020Cullen Frost Bankers Inc.145,034$0.94M0.0%-35.5%0.070%
8/5/2020Virtus ETF Advisers LLC196,324$1.28M0.6%+51.5%0.095%
7/31/2020UBS Group AG29,268$0.19M0.0%-43.6%0.014%
7/29/2020Malaga Cove Capital LLC47,287$0.31M0.2%-5.8%0.023%
7/27/2020Cambridge Investment Research Advisors Inc.376,782$2.45M0.0%+19.9%0.183%
7/27/2020Sumitomo Mitsui Trust Holdings Inc.336,000$2.18M0.0%+182.4%0.163%
7/22/2020First Trust Advisors LP756,627$4.92M0.0%+40.3%0.367%
6/16/2020Royal Bank of Canada40,654$0.19M0.0%-9.0%0.020%
6/5/2020Skandinaviska Enskilda Banken AB publ119,600$0.56M0.0%-43.2%0.058%
6/2/2020Guggenheim Capital LLC76,644$0.36M0.0%+46.1%0.037%
5/26/2020Morgan Stanley3,175,599$14.86M0.0%+26.8%1.542%
5/21/2020HighTower Advisors LLC280,448$1.32M0.0%+1.5%0.136%
5/18/2020Mercer Global Advisors Inc. ADV93,670$0.44M0.0%+15.0%0.045%
5/18/2020Advisor Group Holdings Inc.13,125$62K0.0%N/A0.006%
5/15/2020Jane Street Group LLC12,714$60K0.0%-61.3%0.006%
5/15/2020Morgan Stanley3,175,599$14.86M0.0%+26.8%1.542%
5/15/2020Rafferty Asset Management LLC234,355$1.10M0.0%+43.4%0.114%
5/14/2020Virtus ETF Advisers LLC129,569$0.61M0.2%-48.6%0.063%
5/14/2020Wells Fargo & Company MN182,497$0.85M0.0%+194.1%0.089%
5/14/2020Deutsche Bank AG55,566$0.26M0.0%-25.6%0.027%
5/14/2020Requisite Capital Management LLC80,702$0.38M0.2%-9.0%0.039%
5/13/2020Horizon Kinetics Asset Management LLC186,160$0.87M0.0%+21.5%0.090%
5/13/2020Ascension Capital Advisors Inc.58,283$0.27M0.3%-3.8%0.028%
5/12/2020Meristem Family Wealth LLC106,114$0.50M0.2%+27.4%0.052%
5/12/2020GSA Capital Partners LLP33,036$0.16M0.0%+144.2%0.016%
5/12/2020JPMorgan Chase & Co.167,227$0.78M0.0%-27.7%0.081%
5/6/2020First Trust Advisors LP539,205$2.52M0.0%-6.0%0.262%
5/6/2020Mraz Amerine & Associates Inc.17,200$80K0.0%+13.2%0.008%
5/6/2020Eagle Global Advisors LLC98,122$0.46M0.0%+10.1%0.048%
5/5/2020Howard Financial Services LTD.68,994$0.32M0.3%+3.3%0.034%
5/4/2020EdgePoint Investment Group Inc.3,618,261$16.93M0.2%+30.7%1.757%
5/1/2020Cullen Frost Bankers Inc.224,720$1.05M0.0%-8.5%0.109%
5/1/2020UBS Group AG51,884$0.24M0.0%-58.2%0.025%
4/30/2020Abacus Planning Group Inc.113,000$0.53M0.3%+63.3%0.055%
4/27/2020Sumitomo Mitsui Trust Holdings Inc.119,000$0.56M0.0%-4.0%0.058%
4/24/2020Private Wealth Partners LLC15,000$70K0.0%-90.2%0.007%
4/24/2020Mayo Clinic5,711,137$26.73M67.6%+0.2%2.773%
4/21/2020Raymond James & Associates154,012$0.72M0.0%+22.0%0.075%
4/18/2020Kempner Capital Management Inc.425,116$1.99M1.7%+11.0%0.206%
4/7/2020Spirit of America Management Corp NY383,749$1.80M0.6%-7.6%0.186%
2/26/2020Sunbelt Securities Inc.56,760$0.72M0.0%-19.4%0.028%
2/17/2020Ladenburg Thalmann Financial Services Inc.5,800$74K0.0%+480.0%0.003%
2/14/2020Jane Street Group LLC32,821$0.42M0.0%-78.3%0.016%
2/14/2020Bank of America Corp DE73,217$0.93M0.0%-10.0%0.036%
2/14/2020Goldman Sachs Group Inc.1,021,486$12.99M0.0%-45.2%0.496%
2/14/2020Guggenheim Capital LLC52,477$0.67M0.0%+43.9%0.025%
2/14/2020UBS Group AG123,991$1.58M0.0%+39.1%0.060%
2/14/2020Skandinaviska Enskilda Banken AB publ210,400$2.68M0.0%+436.7%0.102%
2/13/2020Americana Partners LLC3,000$38K0.0%N/A0.001%
2/13/2020Virtus ETF Advisers LLC252,262$3.21M0.5%+38.6%0.122%
2/13/2020Stifel Financial Corp116,101$1.48M0.0%+6.0%0.056%
2/13/2020Malaga Cove Capital LLC51,313$0.65M0.4%+59.5%0.025%
2/12/2020Mayo Clinic5,697,748$72.48M82.2%N/A2.766%
2/12/2020Credit Suisse AG245,565$3.12M0.0%+7.1%0.119%
2/12/2020Raymond James & Associates126,237$1.61M0.0%+21.5%0.061%
2/12/2020Ascension Capital Advisors Inc.60,583$0.77M0.5%N/A0.029%
2/11/2020CI Investments Inc.8,427,284$107.20M0.5%-10.4%4.092%
2/10/2020Barclays PLC37,642$0.48M0.0%+115.3%0.018%
2/10/2020Bank of Montreal Can673,200$8.56M0.0%+210.5%0.327%
2/10/2020Mraz Amerine & Associates Inc.15,200$0.19M0.1%N/A0.007%
2/10/2020Rafferty Asset Management LLC163,448$2.08M0.0%+10.5%0.079%
2/10/2020ING Groep NV190,300$2.42M0.1%N/A0.092%
2/7/2020FMR LLC1,457,859$18.54M0.0%+3.6%0.708%
2/6/2020Acadian Asset Management LLC8,221$0.11M0.0%N/A0.004%
2/6/2020Eagle Global Advisors LLC89,122$1.13M0.1%+2.3%0.043%
2/6/2020Cullen Frost Bankers Inc.245,615$3.12M0.1%-0.9%0.119%
2/6/2020State of Tennessee Treasury Department37,630$0.48M0.0%N/A0.018%
2/5/2020Capital Directions Investment Advisors LLC67,304$0.86M0.3%+42.9%0.033%
2/4/2020US Bancorp DE12,950$0.17M0.0%+121.5%0.006%
2/3/2020First Trust Advisors LP573,768$7.30M0.0%+34.9%0.279%
2/3/2020Mcdaniel Terry & Co.150,357$1.91M0.3%-25.0%0.073%
1/31/2020Sumitomo Mitsui Trust Holdings Inc.124,000$1.58M0.0%+134.0%0.060%
1/29/2020Russell Investments Group Ltd.8,221$0.11M0.0%N/A0.004%
1/29/2020Private Wealth Partners LLC153,650$1.95M0.3%-1.6%0.075%
1/27/2020California Public Employees Retirement System189,664$2.41M0.0%+2.0%0.092%
1/27/2020Howard Financial Services LTD.66,822$0.85M0.5%+7.7%0.032%
1/16/2020Spirit of America Management Corp NY415,529$5.29M0.9%-8.5%0.202%
1/14/2020Kempner Capital Management Inc.383,116$4.87M3.2%+35.6%0.186%
11/27/2019Barclays PLC17,486$0.25M0.0%-7.9%0.008%
11/27/2019Gruss & Co. Inc.152,400$2.17M2.6%-37.1%0.074%
11/27/2019Sunbelt Securities Inc.70,387$1M0.1%+251.9%0.034%
11/27/2019Stifel Financial Corp109,507$1.56M0.0%+48.4%0.053%
11/5/2019BBVA USA Bancshares Inc.20,728$0.30M0.0%N/A0.010%
11/5/2019Loring Wolcott & Coolidge Fiduciary Advisors LLP MA15,000$0.21M0.0%+275.0%0.007%
11/5/2019Tower Research Capital LLC TRC4,297$61K0.0%N/A0.002%
11/4/2019Alps Advisors Inc.24,047$0.34M0.0%+8.6%0.012%
(Data available from 1/1/2016 forward)
This page was last updated on 9/20/2020 by MarketBeat.com Staff

Enter your email address below to receive a concise daily summary of analysts' upgrades, downgrades and new coverage with MarketBeat.com's FREE daily email newsletter.